Airfield :
LOGIN :

Register | Disclaimer

   EN    FR    IT 

 










Legend :    VFR   Marginal VFR   IFR   Intensive IFR   Very Intensive IFR
Visi :
Ceiling :
>= 8 km
>= 3000ft
5 to 8 km
1000 to 3000 ft
1500m to 5 km
500 to 1000 ft
800 to 1500m
200 to 500 ft
< 800m
< 200 ft
Symbols :   Thunderstorms  Fog  Heavy snow  Heavy precipitations  Wind > 20 kt
SIGMETs :     Misc.  Thunderstorms  Icing  Turbulence  Mountain Waves  Volcanic Ashes






- Airport Elevation : 218 ft
- IATA code : LBG


LFPB - Paris / Le Bourget

CURRENT METAR :
  • 170630Z AUTO 35003KT 0550 0450 R27/0500N R09/1100U R07/P2000U FG FEW004 BKN017 03/03 Q1036 TEMPO VV/// BECMG 4000 BR

EXPIRED METARs :
  • 170600Z AUTO VRB02KT 0550 0450 R27/0500N R09/1100D R07/1800U FG VV/// 03/03 Q1036 TEMPO 0300 FG
  • 170530Z AUTO VRB02KT 0500 0350 R27/P2000 R09/0400D R07/0400D FG FEW003 BKN019 04/03 Q1036 TEMPO 0300 FG VV///
  • 170500Z AUTO 00000KT 4300 0800 R27/P2000 R09/P2000 R07/1200D BCFG OVC018 05/04 Q1035 TEMPO 0300 FG VV///
  • 170430Z AUTO 05001KT 4500 BR OVC018 05/04 Q1035 TEMPO 0300 FG VV///
  • 170400Z AUTO 04002KT 4800 2300 BR OVC019 05/05 Q1035 TEMPO 0300 FG VV///

TAF TAF LFPB
Valid from the 17 at 06:00 until the 18 at 06:00 UTC


170500Z 1706/1806 VRB02KT 0500 FG SCT001 BKN014
PROB40
TEMPO 1706/1708 0200 FG VV///
BECMG 1708/1710 4000 BR BKN003 BKN015
BECMG 1710/1712 30010KT 9999 NSW SCT008 BKN018
BECMG 1715/1718 03005KT BKN012
PROB40
TEMPO 1801/1806 4000 BR BKN004
ATIS : +33 1 48 62 43 92



MET'MAP, your aeronautical weather chart ! - Copyright ORBIFLY December 2007 - Disclaimer

ORBIFLY MET'MAP TEAM :

Programming & Development : Alexandra Zaïnal
Concept & original design : Baudouin d'Aumeries
Assistance for programming : Marc-Olivier Méhu
Technical & hardware support : Manuel Goepfert

Contact : metmap@orbifly.com




SOURCES & CREDITS :

   NOAA